Aviation Digital Data Service (ADDS)

Output produced by METARs form (2229 UTC 19 April 2021)
found at http://aviationweather.gov/metar/data/
 
Forecast for: EPCE (CEWICE AIRBASE , PL)
Text: TAF EPCE 192000Z 1921/2006 VRB03KT CAVOK
Forecast period: 2100 UTC 19 April 2021 to 0600 UTC 20 April 2021
Forecast type: FROM: standard forecast or significant change
Winds: variable direction winds at 3 MPH (3 knots; 1.5 m/s)
Visibility: 6 or more miles (10+ km)
Ceiling: unknown
Clouds: missing
Weather: NSW  (no significant weather)

Forecast for: EPDA (DARTOWEK NAVAL , PL)
Text: TAF EPDA 192000Z 1921/2006 03008KT CAVOK
Forecast period: 2100 UTC 19 April 2021 to 0600 UTC 20 April 2021
Forecast type: FROM: standard forecast or significant change
Winds: from the NNE (30 degrees) at 9 MPH (8 knots; 4.1 m/s)
Visibility: 6 or more miles (10+ km)
Ceiling: unknown
Clouds: missing
Weather: NSW  (no significant weather)
Text: TEMPO 2002/2006 VRB02KT 5000 MIFG BR
Forecast period: 0200 to 0600 UTC 20 April 2021
Forecast type: TEMPORARY: The following changes expected for less than half the time period
Winds: variable direction winds at 2 MPH (2 knots; 1.0 m/s)
Visibility: 3 miles (5 km)
Ceiling: unknown
Clouds: missing
Weather: MIFG BR  (shallow fog, mist)
Text: PROB30
Forecast period: 0200 to 0600 UTC 20 April 2021
Forecast type: TEMPORARY: The following changes expected for less than half the time period
Visibility: 0.37 miles (0.60 km)
Ceiling: 200 feet AGL
Clouds: broken clouds at 200 feet AGL
Weather: FG  (fog)

Forecast for: EPDE (DEBLIN-IRENA , PL)
Text: TAF EPDE 192000Z 1921/2006 07008KT CAVOK
Forecast period: 2100 UTC 19 April 2021 to 0600 UTC 20 April 2021
Forecast type: FROM: standard forecast or significant change
Winds: from the ENE (70 degrees) at 9 MPH (8 knots; 4.1 m/s)
Visibility: 6 or more miles (10+ km)
Ceiling: unknown
Clouds: missing
Weather: NSW  (no significant weather)

Forecast for: EPKS (KRZESINY ARPT , PL)
Text: TAF EPKS 192000Z 1921/2006 VRB03KT CAVOK
Forecast period: 2100 UTC 19 April 2021 to 0600 UTC 20 April 2021
Forecast type: FROM: standard forecast or significant change
Winds: variable direction winds at 3 MPH (3 knots; 1.5 m/s)
Visibility: 6 or more miles (10+ km)
Ceiling: unknown
Clouds: missing
Weather: NSW  (no significant weather)
Text: TEMPO 2001/2006 5000 BR
Forecast period: 0100 to 0600 UTC 20 April 2021
Forecast type: TEMPORARY: The following changes expected for less than half the time period
Visibility: 3 miles (5 km)
Ceiling: unknown
Clouds: missing
Weather: BR  (mist)
Text: PROB30
Forecast period: 0300 to 0600 UTC 20 April 2021
Forecast type: TEMPORARY: The following changes expected for less than half the time period
Visibility: 1.24 miles (2.00 km)
Ceiling: unknown
Clouds: missing
Weather: MIFG  (shallow fog)

Forecast for: EPLK (LASK ARPT , PL)
Text: TAF EPLK 192000Z 1921/2006 07008KT CAVOK
Forecast period: 2100 UTC 19 April 2021 to 0600 UTC 20 April 2021
Forecast type: FROM: standard forecast or significant change
Winds: from the ENE (70 degrees) at 9 MPH (8 knots; 4.1 m/s)
Visibility: 6 or more miles (10+ km)
Ceiling: unknown
Clouds: missing
Weather: NSW  (no significant weather)

Forecast for: EPMB (MALBORK , PL)
Text: TAF EPMB 192000Z 1921/2006 34006KT CAVOK
Forecast period: 2100 UTC 19 April 2021 to 0600 UTC 20 April 2021
Forecast type: FROM: standard forecast or significant change
Winds: from the NNW (340 degrees) at 7 MPH (6 knots; 3.1 m/s)
Visibility: 6 or more miles (10+ km)
Ceiling: unknown
Clouds: missing
Weather: NSW  (no significant weather)

Forecast for: EPMI (TWELTH AIRBASE , PL)
Text: TAF EPMI 192000Z 1921/2006 03004KT CAVOK
Forecast period: 2100 UTC 19 April 2021 to 0600 UTC 20 April 2021
Forecast type: FROM: standard forecast or significant change
Winds: from the NNE (30 degrees) at 5 MPH (4 knots; 2.1 m/s)
Visibility: 6 or more miles (10+ km)
Ceiling: unknown
Clouds: missing
Weather: NSW  (no significant weather)

Forecast for: EPOK (GDYNIA-BABIE DO , PL)
Text: TAF EPOK 192000Z 1921/2006 30005KT CAVOK
Forecast period: 2100 UTC 19 April 2021 to 0600 UTC 20 April 2021
Forecast type: FROM: standard forecast or significant change
Winds: from the WNW (300 degrees) at 6 MPH (5 knots; 2.6 m/s)
Visibility: 6 or more miles (10+ km)
Ceiling: unknown
Clouds: missing
Weather: NSW  (no significant weather)

Forecast for: EPPW (POWIDZ AIRPORT , PL)
Text: TAF EPPW 192000Z 1921/2006 VRB03KT CAVOK
Forecast period: 2100 UTC 19 April 2021 to 0600 UTC 20 April 2021
Forecast type: FROM: standard forecast or significant change
Winds: variable direction winds at 3 MPH (3 knots; 1.5 m/s)
Visibility: 6 or more miles (10+ km)
Ceiling: unknown
Clouds: missing
Weather: NSW  (no significant weather)
Text: PROB30 2000/2006 5000 BR
Forecast period: 0000 to 0600 UTC 20 April 2021
Forecast type: PROBABLE: 30 percent likelihood of the following during this time
Visibility: 3 miles (5 km)
Ceiling: unknown
Clouds: missing
Weather: BR  (mist)

Forecast for: EPRA (RADOM AIRPORT , PL)
Text: TAF EPRA 192000Z 1921/2006 VRB03KT CAVOK
Forecast period: 2100 UTC 19 April 2021 to 0600 UTC 20 April 2021
Forecast type: FROM: standard forecast or significant change
Winds: variable direction winds at 3 MPH (3 knots; 1.5 m/s)
Visibility: 6 or more miles (10+ km)
Ceiling: unknown
Clouds: missing
Weather: NSW  (no significant weather)
Text: TEMPO 2001/2004 5000 BR
Forecast period: 0100 to 0400 UTC 20 April 2021
Forecast type: TEMPORARY: The following changes expected for less than half the time period
Visibility: 3 miles (5 km)
Ceiling: unknown
Clouds: missing
Weather: BR  (mist)

Forecast for: EPSN (SWIDWIN ARPT , PL)
Text: TAF EPSN 192000Z 1921/2006 36005KT CAVOK
Forecast period: 2100 UTC 19 April 2021 to 0600 UTC 20 April 2021
Forecast type: FROM: standard forecast or significant change
Winds: from the N (360 degrees) at 6 MPH (5 knots; 2.6 m/s)
Visibility: 6 or more miles (10+ km)
Ceiling: unknown
Clouds: missing
Weather: NSW  (no significant weather)
Text: PROB30
Forecast period: 0200 to 0600 UTC 20 April 2021
Forecast type: TEMPORARY: The following changes expected for less than half the time period
Visibility: 3 miles (5 km)
Ceiling: unknown
Clouds: missing
Weather: BR  (mist)